aviador You're here:

PAVA Decoded Metar

Chevak in AK, USA
Report Time2017-08-19 10:56:00
UTC Time2017-08-19 11:15:24
Flight Rules vfr VFR
Wind290° at 08 kt
W.Decomp.*RWY 20: 1.8 kt HW 7.8 kt RCW
W.Rank290° ranks 14
Current wind is below 290° avg. (10.1)
Visibility9999 m
Phenomena:N/A
Clouds:N/A
Expected CloudBase > 800 ft AGL from Temp-Dew spread
CeilingNone
Temp05°C (ISA -10)
Dew Point03°C (87% RH)
AAT0.6°C
QNH1011 hPa
Density Alt-945 ft
Elevation75 ft
Report Wrong Elevation
Raw Report
PAVA 191056Z AUTO 29008KT 10SM CLR 05/03 A2986 RMK AO2 SLP196
T00500028=

Extra information for PAVA:More info

Airport Information Weather charts Add Link Nearby Venues Social comments

AIRNAV info for PAVA